sensor_id;sensor_type;location;lat;lon;timestamp;pressure;altitude;pressure_sealevel;temperature;humidity
53246;BME280;39569;51.090;-1.786;2023-10-31T00:02:11;99084.50;;;16.68;50.28
53246;BME280;39569;51.090;-1.786;2023-10-31T00:04:40;99085.88;;;16.97;50.19
53246;BME280;39569;51.090;-1.786;2023-10-31T00:07:06;99087.13;;;17.16;49.36
53246;BME280;39569;51.090;-1.786;2023-10-31T00:09:33;99093.56;;;14.64;56.57
53246;BME280;39569;51.090;-1.786;2023-10-31T00:12:00;99096.41;;;14.86;59.32
53246;BME280;39569;51.090;-1.786;2023-10-31T00:14:27;99098.53;;;15.84;57.20
53246;BME280;39569;51.090;-1.786;2023-10-31T00:16:53;99091.06;;;16.50;54.77
53246;BME280;39569;51.090;-1.786;2023-10-31T00:19:20;99098.28;;;16.98;53.49
53246;BME280;39569;51.090;-1.786;2023-10-31T00:21:49;99100.84;;;17.41;51.56
53246;BME280;39569;51.090;-1.786;2023-10-31T00:24:15;99116.16;;;16.78;53.15
53246;BME280;39569;51.090;-1.786;2023-10-31T00:26:42;99107.53;;;17.07;52.38
53246;BME280;39569;51.090;-1.786;2023-10-31T00:29:09;99103.91;;;17.55;51.37
53246;BME280;39569;51.090;-1.786;2023-10-31T00:31:36;99105.03;;;17.59;51.37
53246;BME280;39569;51.090;-1.786;2023-10-31T00:34:06;99116.47;;;17.71;51.33
53246;BME280;39569;51.090;-1.786;2023-10-31T00:36:33;99100.59;;;17.85;51.11
53246;BME280;39569;51.090;-1.786;2023-10-31T00:39:01;99100.75;;;18.10;51.05
53246;BME280;39569;51.090;-1.786;2023-10-31T00:41:28;99106.56;;;17.87;50.78
53246;BME280;39569;51.090;-1.786;2023-10-31T00:43:55;99106.44;;;17.66;51.43
53246;BME280;39569;51.090;-1.786;2023-10-31T00:46:21;99110.09;;;17.92;50.57
53246;BME280;39569;51.090;-1.786;2023-10-31T00:48:48;99104.56;;;18.14;49.97
53246;BME280;39569;51.090;-1.786;2023-10-31T00:51:15;99105.78;;;17.91;50.49
53246;BME280;39569;51.090;-1.786;2023-10-31T00:53:42;99101.06;;;18.18;50.00
53246;BME280;39569;51.090;-1.786;2023-10-31T00:56:10;99102.47;;;18.31;50.02
53246;BME280;39569;51.090;-1.786;2023-10-31T00:58:37;99100.13;;;17.98;50.80
53246;BME280;39569;51.090;-1.786;2023-10-31T01:01:04;99100.19;;;18.03;50.58
53246;BME280;39569;51.090;-1.786;2023-10-31T01:03:30;99096.41;;;18.04;50.59
53246;BME280;39569;51.090;-1.786;2023-10-31T01:05:57;99093.78;;;18.24;50.39
53246;BME280;39569;51.090;-1.786;2023-10-31T01:08:24;99091.63;;;18.26;50.56
53246;BME280;39569;51.090;-1.786;2023-10-31T01:10:51;99098.06;;;18.10;50.69
53246;BME280;39569;51.090;-1.786;2023-10-31T01:13:19;99105.03;;;18.01;51.05
53246;BME280;39569;51.090;-1.786;2023-10-31T01:15:45;99107.84;;;18.26;50.34
53246;BME280;39569;51.090;-1.786;2023-10-31T01:18:12;99112.34;;;18.05;50.93
53246;BME280;39569;51.090;-1.786;2023-10-31T01:20:39;99112.13;;;18.12;50.61
53246;BME280;39569;51.090;-1.786;2023-10-31T01:23:06;99110.34;;;18.32;49.58
53246;BME280;39569;51.090;-1.786;2023-10-31T01:25:32;99104.72;;;18.44;49.84
53246;BME280;39569;51.090;-1.786;2023-10-31T01:27:59;99103.84;;;18.33;50.09
53246;BME280;39569;51.090;-1.786;2023-10-31T01:30:27;99107.91;;;18.36;49.92
53246;BME280;39569;51.090;-1.786;2023-10-31T01:32:54;99107.16;;;17.94;50.76
53246;BME280;39569;51.090;-1.786;2023-10-31T01:35:21;99109.91;;;17.99;50.86
53246;BME280;39569;51.090;-1.786;2023-10-31T01:37:47;99104.78;;;18.02;50.63
53246;BME280;39569;51.090;-1.786;2023-10-31T01:40:14;99113.16;;;18.06;50.23
53246;BME280;39569;51.090;-1.786;2023-10-31T01:42:41;99113.34;;;17.89;50.83
53246;BME280;39569;51.090;-1.786;2023-10-31T01:45:08;99107.84;;;18.21;50.44
53246;BME280;39569;51.090;-1.786;2023-10-31T01:47:36;99110.66;;;18.46;49.75
53246;BME280;39569;51.090;-1.786;2023-10-31T01:50:06;99113.91;;;18.43;49.74
53246;BME280;39569;51.090;-1.786;2023-10-31T01:52:33;99123.41;;;18.04;50.29
53246;BME280;39569;51.090;-1.786;2023-10-31T01:55:02;99124.59;;;18.18;50.50
53246;BME280;39569;51.090;-1.786;2023-10-31T01:57:29;99105.81;;;18.43;49.63
53246;BME280;39569;51.090;-1.786;2023-10-31T01:59:56;99117.63;;;18.37;50.01
53246;BME280;39569;51.090;-1.786;2023-10-31T02:02:23;99110.16;;;18.49;49.62
53246;BME280;39569;51.090;-1.786;2023-10-31T02:04:52;99122.84;;;18.43;50.44
53246;BME280;39569;51.090;-1.786;2023-10-31T02:07:19;99124.75;;;18.48;50.05
53246;BME280;39569;51.090;-1.786;2023-10-31T02:09:46;99121.16;;;18.32;50.45
53246;BME280;39569;51.090;-1.786;2023-10-31T02:12:31;99115.91;;;18.73;49.93
53246;BME280;39569;51.090;-1.786;2023-10-31T02:14:59;99124.63;;;18.28;50.68
53246;BME280;39569;51.090;-1.786;2023-10-31T02:17:25;99123.91;;;18.42;50.53
53246;BME280;39569;51.090;-1.786;2023-10-31T02:19:54;99113.47;;;18.81;49.77
53246;BME280;39569;51.090;-1.786;2023-10-31T02:22:22;99106.97;;;18.72;50.24
53246;BME280;39569;51.090;-1.786;2023-10-31T02:24:49;99117.19;;;18.55;50.12
53246;BME280;39569;51.090;-1.786;2023-10-31T02:27:15;99110.28;;;18.27;50.76
53246;BME280;39569;51.090;-1.786;2023-10-31T02:29:42;99103.25;;;18.21;50.93
53246;BME280;39569;51.090;-1.786;2023-10-31T02:32:09;99104.28;;;18.10;50.49
53246;BME280;39569;51.090;-1.786;2023-10-31T02:34:35;99101.41;;;18.37;50.33
53246;BME280;39569;51.090;-1.786;2023-10-31T02:37:02;99097.06;;;18.31;49.99
53246;BME280;39569;51.090;-1.786;2023-10-31T02:39:32;99104.66;;;18.39;50.10
53246;BME280;39569;51.090;-1.786;2023-10-31T02:41:58;99106.78;;;18.27;50.18
53246;BME280;39569;51.090;-1.786;2023-10-31T02:44:25;99106.53;;;18.33;50.22
53246;BME280;39569;51.090;-1.786;2023-10-31T02:46:52;99107.94;;;18.41;50.41
53246;BME280;39569;51.090;-1.786;2023-10-31T02:49:19;99106.69;;;18.63;50.30
53246;BME280;39569;51.090;-1.786;2023-10-31T02:51:45;99095.38;;;18.77;49.90
53246;BME280;39569;51.090;-1.786;2023-10-31T02:54:12;99105.88;;;18.68;50.69
53246;BME280;39569;51.090;-1.786;2023-10-31T02:56:40;99103.75;;;18.75;51.14
53246;BME280;39569;51.090;-1.786;2023-10-31T02:59:07;99098.09;;;18.97;50.52
53246;BME280;39569;51.090;-1.786;2023-10-31T03:01:35;99098.06;;;18.82;51.49
53246;BME280;39569;51.090;-1.786;2023-10-31T03:04:01;99096.09;;;18.57;51.44
53246;BME280;39569;51.090;-1.786;2023-10-31T03:06:28;99101.88;;;18.96;51.23
53246;BME280;39569;51.090;-1.786;2023-10-31T03:08:55;99101.38;;;19.14;50.67
53246;BME280;39569;51.090;-1.786;2023-10-31T03:11:22;99099.75;;;19.18;50.50
53246;BME280;39569;51.090;-1.786;2023-10-31T03:13:50;99097.31;;;19.21;50.54
53246;BME280;39569;51.090;-1.786;2023-10-31T03:16:18;99093.44;;;18.72;51.53
53246;BME280;39569;51.090;-1.786;2023-10-31T03:18:45;99094.34;;;19.03;50.61
53246;BME280;39569;51.090;-1.786;2023-10-31T03:21:12;99092.94;;;18.90;50.89
53246;BME280;39569;51.090;-1.786;2023-10-31T03:23:38;99100.53;;;18.98;50.82
53246;BME280;39569;51.090;-1.786;2023-10-31T03:26:05;99095.13;;;18.98;50.54
53246;BME280;39569;51.090;-1.786;2023-10-31T03:28:32;99097.06;;;19.18;50.12
53246;BME280;39569;51.090;-1.786;2023-10-31T03:31:00;99105.19;;;19.18;50.04
53246;BME280;39569;51.090;-1.786;2023-10-31T03:33:27;99100.00;;;19.01;50.06
53246;BME280;39569;51.090;-1.786;2023-10-31T03:35:53;99112.72;;;19.06;49.93
53246;BME280;39569;51.090;-1.786;2023-10-31T03:38:20;99111.09;;;19.00;50.00
53246;BME280;39569;51.090;-1.786;2023-10-31T03:40:47;99105.94;;;18.98;50.16
53246;BME280;39569;51.090;-1.786;2023-10-31T03:43:14;99115.13;;;18.82;50.27
53246;BME280;39569;51.090;-1.786;2023-10-31T03:45:41;99120.00;;;18.85;50.46
53246;BME280;39569;51.090;-1.786;2023-10-31T03:48:09;99107.75;;;18.57;51.30
53246;BME280;39569;51.090;-1.786;2023-10-31T03:50:35;99111.31;;;18.16;52.22
53246;BME280;39569;51.090;-1.786;2023-10-31T03:53:02;99112.38;;;18.62;51.37
53246;BME280;39569;51.090;-1.786;2023-10-31T03:55:29;99116.72;;;18.16;52.38
53246;BME280;39569;51.090;-1.786;2023-10-31T03:57:56;99115.47;;;18.39;52.14
53246;BME280;39569;51.090;-1.786;2023-10-31T04:00:23;99117.47;;;18.53;52.32
53246;BME280;39569;51.090;-1.786;2023-10-31T04:02:50;99115.75;;;18.32;52.83
53246;BME280;39569;51.090;-1.786;2023-10-31T04:05:18;99119.38;;;18.63;51.94
53246;BME280;39569;51.090;-1.786;2023-10-31T04:07:46;99124.56;;;18.70;51.46
53246;BME280;39569;51.090;-1.786;2023-10-31T04:10:13;99130.19;;;18.58;51.92
53246;BME280;39569;51.090;-1.786;2023-10-31T04:12:40;99131.91;;;18.89;51.22
53246;BME280;39569;51.090;-1.786;2023-10-31T04:15:08;99135.13;;;18.71;51.73
53246;BME280;39569;51.090;-1.786;2023-10-31T04:17:35;99143.94;;;18.51;51.84
53246;BME280;39569;51.090;-1.786;2023-10-31T04:20:02;99143.66;;;18.48;52.02
53246;BME280;39569;51.090;-1.786;2023-10-31T04:22:30;99143.50;;;18.80;51.46
53246;BME280;39569;51.090;-1.786;2023-10-31T04:24:57;99144.06;;;18.77;51.19
53246;BME280;39569;51.090;-1.786;2023-10-31T04:27:23;99153.88;;;18.41;52.01
53246;BME280;39569;51.090;-1.786;2023-10-31T04:29:50;99153.06;;;18.35;51.94
53246;BME280;39569;51.090;-1.786;2023-10-31T04:32:17;99160.03;;;18.78;51.58
53246;BME280;39569;51.090;-1.786;2023-10-31T04:34:43;99158.03;;;18.53;51.88
53246;BME280;39569;51.090;-1.786;2023-10-31T04:37:10;99154.81;;;18.56;51.81
53246;BME280;39569;51.090;-1.786;2023-10-31T04:39:38;99158.91;;;18.74;51.47
53246;BME280;39569;51.090;-1.786;2023-10-31T04:42:05;99160.56;;;18.80;51.16
53246;BME280;39569;51.090;-1.786;2023-10-31T04:44:32;99168.72;;;18.95;50.58
53246;BME280;39569;51.090;-1.786;2023-10-31T04:46:58;99170.63;;;18.90;50.61
53246;BME280;39569;51.090;-1.786;2023-10-31T04:49:25;99170.25;;;18.66;51.09
53246;BME280;39569;51.090;-1.786;2023-10-31T04:51:52;99182.75;;;18.77;50.59
53246;BME280;39569;51.090;-1.786;2023-10-31T04:54:19;99180.47;;;18.49;51.39
53246;BME280;39569;51.090;-1.786;2023-10-31T04:56:49;99179.09;;;18.51;51.88
53246;BME280;39569;51.090;-1.786;2023-10-31T04:59:16;99188.75;;;18.37;52.28
53246;BME280;39569;51.090;-1.786;2023-10-31T05:01:48;99186.78;;;18.70;51.71
53246;BME280;39569;51.090;-1.786;2023-10-31T05:04:15;99182.38;;;18.12;53.12
53246;BME280;39569;51.090;-1.786;2023-10-31T05:06:42;99188.81;;;18.06;53.84
53246;BME280;39569;51.090;-1.786;2023-10-31T05:09:10;99185.59;;;18.45;52.32
53246;BME280;39569;51.090;-1.786;2023-10-31T05:11:36;99177.34;;;18.87;51.67
53246;BME280;39569;51.090;-1.786;2023-10-31T05:14:05;99170.34;;;18.86;51.77
53246;BME280;39569;51.090;-1.786;2023-10-31T05:16:31;99175.63;;;18.61;51.61
53246;BME280;39569;51.090;-1.786;2023-10-31T05:18:58;99176.53;;;18.82;50.93
53246;BME280;39569;51.090;-1.786;2023-10-31T05:21:29;99165.47;;;18.36;51.79
53246;BME280;39569;51.090;-1.786;2023-10-31T05:23:56;99164.38;;;18.89;50.77
53246;BME280;39569;51.090;-1.786;2023-10-31T05:26:23;99163.41;;;18.48;51.51
53246;BME280;39569;51.090;-1.786;2023-10-31T05:28:50;99164.94;;;18.91;50.15
53246;BME280;39569;51.090;-1.786;2023-10-31T05:31:18;99174.56;;;18.62;51.10
53246;BME280;39569;51.090;-1.786;2023-10-31T05:33:45;99180.28;;;18.76;50.36
53246;BME280;39569;51.090;-1.786;2023-10-31T05:36:18;99178.19;;;18.88;50.23
53246;BME280;39569;51.090;-1.786;2023-10-31T05:38:44;99183.97;;;18.08;51.80
53246;BME280;39569;51.090;-1.786;2023-10-31T05:41:11;99181.31;;;18.59;50.92
53246;BME280;39569;51.090;-1.786;2023-10-31T05:43:38;99186.91;;;18.43;51.08
53246;BME280;39569;51.090;-1.786;2023-10-31T05:46:05;99182.63;;;18.47;50.85
53246;BME280;39569;51.090;-1.786;2023-10-31T05:48:33;99181.59;;;18.58;50.82
53246;BME280;39569;51.090;-1.786;2023-10-31T05:51:00;99186.44;;;18.14;51.53
53246;BME280;39569;51.090;-1.786;2023-10-31T05:53:27;99189.47;;;18.23;51.38
53246;BME280;39569;51.090;-1.786;2023-10-31T05:55:53;99196.78;;;18.27;51.38
53246;BME280;39569;51.090;-1.786;2023-10-31T05:58:20;99192.44;;;18.21;51.22
53246;BME280;39569;51.090;-1.786;2023-10-31T06:00:47;99188.78;;;18.42;50.69
53246;BME280;39569;51.090;-1.786;2023-10-31T06:03:14;99192.44;;;18.68;50.18
53246;BME280;39569;51.090;-1.786;2023-10-31T06:05:41;99187.84;;;18.74;49.76
53246;BME280;39569;51.090;-1.786;2023-10-31T06:08:09;99195.88;;;18.53;49.64
53246;BME280;39569;51.090;-1.786;2023-10-31T06:10:35;99193.44;;;18.47;49.36
53246;BME280;39569;51.090;-1.786;2023-10-31T06:13:02;99196.31;;;18.40;49.45
53246;BME280;39569;51.090;-1.786;2023-10-31T06:15:29;99202.72;;;18.24;49.23
53246;BME280;39569;51.090;-1.786;2023-10-31T06:17:56;99200.28;;;18.18;49.10
53246;BME280;39569;51.090;-1.786;2023-10-31T06:20:22;99205.09;;;17.79;49.78
53246;BME280;39569;51.090;-1.786;2023-10-31T06:22:50;99204.63;;;17.87;50.05
53246;BME280;39569;51.090;-1.786;2023-10-31T06:25:17;99219.25;;;17.59;50.78
53246;BME280;39569;51.090;-1.786;2023-10-31T06:27:44;99222.09;;;17.48;52.11
53246;BME280;39569;51.090;-1.786;2023-10-31T06:30:11;99217.88;;;17.89;51.32
53246;BME280;39569;51.090;-1.786;2023-10-31T06:32:38;99218.09;;;18.19;50.57
53246;BME280;39569;51.090;-1.786;2023-10-31T06:35:06;99231.28;;;18.10;51.01
53246;BME280;39569;51.090;-1.786;2023-10-31T06:37:33;99229.25;;;17.96;51.02
53246;BME280;39569;51.090;-1.786;2023-10-31T06:40:03;99238.56;;;18.41;50.39
53246;BME280;39569;51.090;-1.786;2023-10-31T06:42:30;99242.53;;;17.97;51.06
53246;BME280;39569;51.090;-1.786;2023-10-31T06:44:57;99249.66;;;18.08;50.92
53246;BME280;39569;51.090;-1.786;2023-10-31T06:47:23;99243.13;;;18.04;50.53
53246;BME280;39569;51.090;-1.786;2023-10-31T06:49:50;99242.84;;;18.01;50.58
53246;BME280;39569;51.090;-1.786;2023-10-31T06:52:17;99248.53;;;18.04;50.59
53246;BME280;39569;51.090;-1.786;2023-10-31T06:54:43;99253.53;;;18.22;50.04
53246;BME280;39569;51.090;-1.786;2023-10-31T06:57:11;99259.22;;;18.26;49.67
53246;BME280;39569;51.090;-1.786;2023-10-31T06:59:38;99262.88;;;18.05;49.60
53246;BME280;39569;51.090;-1.786;2023-10-31T07:02:05;99270.34;;;17.98;50.09
53246;BME280;39569;51.090;-1.786;2023-10-31T07:04:32;99273.75;;;17.83;50.38
53246;BME280;39569;51.090;-1.786;2023-10-31T07:06:59;99266.91;;;18.07;50.18
53246;BME280;39569;51.090;-1.786;2023-10-31T07:09:26;99275.69;;;18.24;49.97
53246;BME280;39569;51.090;-1.786;2023-10-31T07:11:53;99274.25;;;18.12;50.23
53246;BME280;39569;51.090;-1.786;2023-10-31T07:14:21;99265.78;;;18.35;50.31
53246;BME280;39569;51.090;-1.786;2023-10-31T07:16:48;99274.00;;;18.13;50.45
53246;BME280;39569;51.090;-1.786;2023-10-31T07:19:15;99263.78;;;18.20;50.43
53246;BME280;39569;51.090;-1.786;2023-10-31T07:21:41;99268.72;;;18.28;50.41
53246;BME280;39569;51.090;-1.786;2023-10-31T07:24:08;99266.75;;;18.55;49.99
53246;BME280;39569;51.090;-1.786;2023-10-31T07:26:35;99270.88;;;18.68;50.16
53246;BME280;39569;51.090;-1.786;2023-10-31T07:29:02;99281.56;;;18.48;50.24
53246;BME280;39569;51.090;-1.786;2023-10-31T07:31:30;99282.88;;;18.82;50.20
53246;BME280;39569;51.090;-1.786;2023-10-31T07:33:57;99288.22;;;18.72;50.85
53246;BME280;39569;51.090;-1.786;2023-10-31T07:36:24;99287.06;;;18.63;51.42
53246;BME280;39569;51.090;-1.786;2023-10-31T07:38:50;99290.63;;;18.69;51.64
53246;BME280;39569;51.090;-1.786;2023-10-31T07:41:17;99299.13;;;18.92;51.20
53246;BME280;39569;51.090;-1.786;2023-10-31T07:43:44;99296.56;;;19.17;50.68
53246;BME280;39569;51.090;-1.786;2023-10-31T07:46:10;99300.72;;;19.45;50.27
53246;BME280;39569;51.090;-1.786;2023-10-31T07:48:38;99295.91;;;19.62;50.27
53246;BME280;39569;51.090;-1.786;2023-10-31T07:51:05;99304.00;;;19.57;49.83
53246;BME280;39569;51.090;-1.786;2023-10-31T07:53:32;99304.44;;;19.29;50.61
53246;BME280;39569;51.090;-1.786;2023-10-31T07:55:59;99314.97;;;19.20;50.63
53246;BME280;39569;51.090;-1.786;2023-10-31T07:58:25;99313.28;;;19.04;51.28
53246;BME280;39569;51.090;-1.786;2023-10-31T08:00:52;99317.06;;;19.75;50.28
53246;BME280;39569;51.090;-1.786;2023-10-31T08:03:19;99318.44;;;20.08;49.94
53246;BME280;39569;51.090;-1.786;2023-10-31T08:05:47;99314.63;;;19.89;50.44
53246;BME280;39569;51.090;-1.786;2023-10-31T08:08:13;99314.63;;;19.89;50.41
53246;BME280;39569;51.090;-1.786;2023-10-31T08:10:40;99317.34;;;19.84;50.30
53246;BME280;39569;51.090;-1.786;2023-10-31T08:13:07;99313.19;;;19.46;51.19
53246;BME280;39569;51.090;-1.786;2023-10-31T08:15:34;99317.81;;;19.55;51.20
53246;BME280;39569;51.090;-1.786;2023-10-31T08:18:00;99320.91;;;19.99;50.11
53246;BME280;39569;51.090;-1.786;2023-10-31T08:20:27;99327.66;;;20.02;50.34
53246;BME280;39569;51.090;-1.786;2023-10-31T08:22:59;99321.16;;;20.13;50.49
53246;BME280;39569;51.090;-1.786;2023-10-31T08:25:27;99325.47;;;19.89;50.12
53246;BME280;39569;51.090;-1.786;2023-10-31T08:27:53;99326.53;;;19.73;50.77
53246;BME280;39569;51.090;-1.786;2023-10-31T08:30:20;99331.91;;;19.57;50.72
53246;BME280;39569;51.090;-1.786;2023-10-31T08:32:47;99332.75;;;19.63;50.80
53246;BME280;39569;51.090;-1.786;2023-10-31T08:35:14;99335.75;;;19.87;50.33
53246;BME280;39569;51.090;-1.786;2023-10-31T08:37:40;99340.38;;;19.96;49.99
53246;BME280;39569;51.090;-1.786;2023-10-31T08:40:09;99340.13;;;20.08;49.81
53246;BME280;39569;51.090;-1.786;2023-10-31T08:42:36;99350.97;;;19.88;50.30
53246;BME280;39569;51.090;-1.786;2023-10-31T08:45:04;99343.84;;;19.72;50.76
53246;BME280;39569;51.090;-1.786;2023-10-31T08:47:30;99352.06;;;19.97;50.11
53246;BME280;39569;51.090;-1.786;2023-10-31T08:49:57;99351.19;;;19.81;50.42
53246;BME280;39569;51.090;-1.786;2023-10-31T08:52:24;99350.16;;;20.02;50.59
53246;BME280;39569;51.090;-1.786;2023-10-31T08:54:51;99353.72;;;20.48;49.45
53246;BME280;39569;51.090;-1.786;2023-10-31T08:57:19;99353.19;;;20.71;49.49
53246;BME280;39569;51.090;-1.786;2023-10-31T08:59:45;99362.09;;;20.82;48.97
53246;BME280;39569;51.090;-1.786;2023-10-31T09:02:12;99355.22;;;21.34;48.41
53246;BME280;39569;51.090;-1.786;2023-10-31T09:04:39;99356.13;;;21.69;47.77
53246;BME280;39569;51.090;-1.786;2023-10-31T09:07:06;99365.09;;;21.64;48.28
53246;BME280;39569;51.090;-1.786;2023-10-31T09:09:32;99351.53;;;22.46;47.18
53246;BME280;39569;51.090;-1.786;2023-10-31T09:11:59;99349.00;;;23.97;43.74
53246;BME280;39569;51.090;-1.786;2023-10-31T09:14:27;99350.50;;;24.26;44.25
53246;BME280;39569;51.090;-1.786;2023-10-31T09:16:54;99348.00;;;25.49;42.86
53246;BME280;39569;51.090;-1.786;2023-10-31T09:19:21;99352.34;;;25.36;40.50
53246;BME280;39569;51.090;-1.786;2023-10-31T09:21:48;99351.25;;;25.86;42.52
53246;BME280;39569;51.090;-1.786;2023-10-31T09:24:15;99348.88;;;26.95;39.58
53246;BME280;39569;51.090;-1.786;2023-10-31T09:26:41;99345.03;;;27.36;39.86
53246;BME280;39569;51.090;-1.786;2023-10-31T09:29:08;99347.44;;;26.45;38.76
53246;BME280;39569;51.090;-1.786;2023-10-31T09:31:37;99342.22;;;27.27;38.18
53246;BME280;39569;51.090;-1.786;2023-10-31T09:34:04;99354.47;;;25.53;40.56
53246;BME280;39569;51.090;-1.786;2023-10-31T09:36:32;99361.66;;;28.47;39.79
53246;BME280;39569;51.090;-1.786;2023-10-31T09:39:00;99363.97;;;27.15;38.27
53246;BME280;39569;51.090;-1.786;2023-10-31T09:41:26;99367.97;;;28.47;37.07
53246;BME280;39569;51.090;-1.786;2023-10-31T09:43:53;99371.16;;;27.33;39.26
53246;BME280;39569;51.090;-1.786;2023-10-31T09:46:21;99373.94;;;26.00;40.70
53246;BME280;39569;51.090;-1.786;2023-10-31T09:48:49;99374.19;;;26.70;39.13
53246;BME280;39569;51.090;-1.786;2023-10-31T09:51:17;99380.50;;;25.99;40.49
53246;BME280;39569;51.090;-1.786;2023-10-31T09:53:44;99375.16;;;25.94;40.39
53246;BME280;39569;51.090;-1.786;2023-10-31T09:56:11;99370.50;;;24.86;40.84
53246;BME280;39569;51.090;-1.786;2023-10-31T09:58:38;99374.00;;;25.46;40.72
53246;BME280;39569;51.090;-1.786;2023-10-31T10:01:06;99383.88;;;26.10;40.09
53246;BME280;39569;51.090;-1.786;2023-10-31T10:03:33;99388.38;;;25.79;40.24
53246;BME280;39569;51.090;-1.786;2023-10-31T10:06:02;99385.88;;;24.82;41.33
53246;BME280;39569;51.090;-1.786;2023-10-31T10:08:29;99386.03;;;25.31;41.33
53246;BME280;39569;51.090;-1.786;2023-10-31T10:10:56;99389.91;;;25.58;40.66
53246;BME280;39569;51.090;-1.786;2023-10-31T10:13:23;99383.78;;;28.33;35.75
53246;BME280;39569;51.090;-1.786;2023-10-31T10:15:50;99379.44;;;27.50;35.86
53246;BME280;39569;51.090;-1.786;2023-10-31T10:18:25;99374.56;;;30.35;34.83
53246;BME280;39569;51.090;-1.786;2023-10-31T10:20:56;99384.75;;;27.16;36.19
53246;BME280;39569;51.090;-1.786;2023-10-31T10:23:26;99384.16;;;29.87;34.23
53246;BME280;39569;51.090;-1.786;2023-10-31T10:25:53;99384.41;;;27.96;35.94
53246;BME280;39569;51.090;-1.786;2023-10-31T10:28:20;99403.03;;;26.90;37.39
53246;BME280;39569;51.090;-1.786;2023-10-31T10:30:47;99398.91;;;27.32;36.35
53246;BME280;39569;51.090;-1.786;2023-10-31T10:33:13;99403.75;;;26.60;36.69
53246;BME280;39569;51.090;-1.786;2023-10-31T10:35:40;99401.56;;;25.50;39.59
53246;BME280;39569;51.090;-1.786;2023-10-31T10:38:11;99411.09;;;25.39;39.75
53246;BME280;39569;51.090;-1.786;2023-10-31T10:40:42;99421.69;;;23.88;43.00
53246;BME280;39569;51.090;-1.786;2023-10-31T10:43:13;99435.84;;;23.19;45.09
53246;BME280;39569;51.090;-1.786;2023-10-31T10:45:42;99443.09;;;22.27;47.97
53246;BME280;39569;51.090;-1.786;2023-10-31T10:48:12;99454.22;;;21.82;48.28
53246;BME280;39569;51.090;-1.786;2023-10-31T10:50:42;99442.50;;;22.35;46.62
53246;BME280;39569;51.090;-1.786;2023-10-31T10:53:14;99434.00;;;23.09;46.40
53246;BME280;39569;51.090;-1.786;2023-10-31T10:55:46;99428.69;;;23.52;44.80
53246;BME280;39569;51.090;-1.786;2023-10-31T10:58:22;99430.28;;;23.00;44.98
53246;BME280;39569;51.090;-1.786;2023-10-31T11:00:53;99433.59;;;22.97;45.89
53246;BME280;39569;51.090;-1.786;2023-10-31T11:03:22;99426.19;;;23.79;44.45
53246;BME280;39569;51.090;-1.786;2023-10-31T11:05:50;99433.72;;;23.63;44.38
53246;BME280;39569;51.090;-1.786;2023-10-31T11:08:19;99432.69;;;24.76;43.50
53246;BME280;39569;51.090;-1.786;2023-10-31T11:10:48;99431.41;;;25.19;42.67
53246;BME280;39569;51.090;-1.786;2023-10-31T11:13:15;99429.81;;;24.86;43.04
53246;BME280;39569;51.090;-1.786;2023-10-31T11:15:43;99429.88;;;24.62;43.39
53246;BME280;39569;51.090;-1.786;2023-10-31T11:18:10;99428.22;;;25.58;41.48
53246;BME280;39569;51.090;-1.786;2023-10-31T11:20:38;99429.16;;;25.34;40.34
53246;BME280;39569;51.090;-1.786;2023-10-31T11:23:06;99421.44;;;26.18;39.13
53246;BME280;39569;51.090;-1.786;2023-10-31T11:25:33;99419.44;;;27.12;36.88
53246;BME280;39569;51.090;-1.786;2023-10-31T11:28:14;99407.00;;;29.13;32.90
53246;BME280;39569;51.090;-1.786;2023-10-31T11:30:41;99415.78;;;28.21;36.03
53246;BME280;39569;51.090;-1.786;2023-10-31T11:33:11;99420.28;;;25.70;39.43
53246;BME280;39569;51.090;-1.786;2023-10-31T11:35:39;99427.53;;;24.74;42.00
53246;BME280;39569;51.090;-1.786;2023-10-31T11:38:08;99428.63;;;23.57;42.45
53246;BME280;39569;51.090;-1.786;2023-10-31T11:40:37;99424.28;;;22.75;44.92
53246;BME280;39569;51.090;-1.786;2023-10-31T11:43:05;99432.03;;;23.67;43.71
53246;BME280;39569;51.090;-1.786;2023-10-31T11:45:36;99433.34;;;23.70;44.78
53246;BME280;39569;51.090;-1.786;2023-10-31T11:48:04;99417.19;;;25.03;42.44
53246;BME280;39569;51.090;-1.786;2023-10-31T11:50:31;99420.88;;;25.26;41.27
53246;BME280;39569;51.090;-1.786;2023-10-31T11:53:03;99419.34;;;24.00;42.17
53246;BME280;39569;51.090;-1.786;2023-10-31T11:55:32;99412.38;;;23.89;43.45
53246;BME280;39569;51.090;-1.786;2023-10-31T11:58:12;99422.25;;;23.85;42.82
53246;BME280;39569;51.090;-1.786;2023-10-31T12:00:40;99421.00;;;24.01;42.22
53246;BME280;39569;51.090;-1.786;2023-10-31T12:03:07;99420.03;;;24.10;41.91
53246;BME280;39569;51.090;-1.786;2023-10-31T12:05:34;99414.72;;;25.48;38.97
53246;BME280;39569;51.090;-1.786;2023-10-31T12:08:01;99418.06;;;23.92;41.14
53246;BME280;39569;51.090;-1.786;2023-10-31T12:10:28;99418.16;;;24.62;41.65
53246;BME280;39569;51.090;-1.786;2023-10-31T12:12:56;99415.22;;;24.58;39.81
53246;BME280;39569;51.090;-1.786;2023-10-31T12:15:24;99415.56;;;24.70;40.28
53246;BME280;39569;51.090;-1.786;2023-10-31T12:17:54;99418.81;;;25.99;38.01
53246;BME280;39569;51.090;-1.786;2023-10-31T12:20:23;99422.91;;;25.88;39.58
53246;BME280;39569;51.090;-1.786;2023-10-31T12:23:01;99418.94;;;25.13;38.24
53246;BME280;39569;51.090;-1.786;2023-10-31T12:25:28;99419.00;;;26.52;38.15
53246;BME280;39569;51.090;-1.786;2023-10-31T12:27:54;99416.41;;;26.47;37.49
53246;BME280;39569;51.090;-1.786;2023-10-31T12:30:21;99418.09;;;24.99;40.20
53246;BME280;39569;51.090;-1.786;2023-10-31T12:32:55;99411.97;;;27.35;37.17
53246;BME280;39569;51.090;-1.786;2023-10-31T12:35:24;99412.06;;;27.21;36.27
53246;BME280;39569;51.090;-1.786;2023-10-31T12:37:53;99420.56;;;25.14;39.91
53246;BME280;39569;51.090;-1.786;2023-10-31T12:40:23;99429.28;;;24.84;39.51
53246;BME280;39569;51.090;-1.786;2023-10-31T12:42:52;99432.28;;;24.31;42.14
53246;BME280;39569;51.090;-1.786;2023-10-31T12:45:19;99435.13;;;24.77;41.80
53246;BME280;39569;51.090;-1.786;2023-10-31T12:48:02;99436.66;;;24.32;42.06
53246;BME280;39569;51.090;-1.786;2023-10-31T12:50:30;99431.47;;;24.31;41.29
53246;BME280;39569;51.090;-1.786;2023-10-31T12:52:57;99432.66;;;24.44;41.66